createdAt,value
2017-09-21T00:00:32.121Z,78.10
2017-09-21T00:02:59.677Z,78.20
2017-09-21T00:05:27.651Z,78.30
2017-09-21T00:07:55.224Z,78.30
2017-09-21T00:10:22.784Z,78.20
2017-09-21T00:12:50.370Z,78.10
2017-09-21T00:15:17.940Z,77.90
2017-09-21T00:17:45.966Z,78.20
2017-09-21T00:20:13.526Z,78.10
2017-09-21T00:22:41.086Z,78.30
2017-09-21T00:25:08.683Z,78.10
2017-09-21T00:27:36.383Z,78.40
2017-09-21T00:30:04.276Z,78.20
2017-09-21T00:32:31.859Z,78.10
2017-09-21T00:34:59.424Z,78.20
2017-09-21T00:37:27.954Z,78.20
2017-09-21T00:39:55.531Z,78.20
2017-09-21T00:42:23.939Z,78.20
2017-09-21T00:44:51.536Z,78.30
2017-09-21T00:47:19.100Z,78.40
2017-09-21T00:49:46.703Z,78.40
2017-09-21T00:52:14.291Z,78.40
2017-09-21T00:54:42.935Z,78.40
2017-09-21T00:57:10.517Z,78.30
2017-09-21T00:59:38.067Z,78.40
2017-09-21T01:02:05.667Z,78.40
2017-09-21T01:04:33.223Z,78.40
2017-09-21T01:07:01.077Z,78.40
2017-09-21T01:09:29.399Z,78.20
2017-09-21T01:11:56.961Z,78.20
2017-09-21T01:14:24.570Z,78.30
2017-09-21T01:16:52.140Z,78.30
2017-09-21T01:19:20.942Z,78.30
2017-09-21T01:21:48.699Z,78.20
2017-09-21T01:24:16.250Z,78.30
2017-09-21T01:26:43.852Z,78.20
2017-09-21T01:29:11.415Z,78.40
2017-09-21T01:31:39.282Z,78.20
2017-09-21T01:34:06.840Z,78.20
2017-09-21T01:36:34.405Z,78.20
2017-09-21T01:39:01.995Z,78.10
2017-09-21T01:41:29.551Z,78.20
2017-09-21T01:43:57.608Z,78.20
2017-09-21T01:46:25.305Z,78.10
2017-09-21T01:48:52.871Z,78.30
2017-09-21T01:51:20.489Z,78.20
2017-09-21T01:53:48.050Z,78.20
2017-09-21T01:56:16.123Z,78.20
2017-09-21T01:58:43.687Z,78.40
2017-09-21T02:01:11.248Z,78.40
2017-09-21T02:03:38.841Z,78.40
2017-09-21T02:06:06.402Z,78.60
2017-09-21T02:08:34.419Z,78.60
2017-09-21T02:11:01.958Z,78.50
2017-09-21T02:13:29.517Z,78.50
2017-09-21T02:15:57.099Z,78.60
2017-09-21T02:18:24.650Z,78.60
2017-09-21T02:20:52.543Z,78.60
2017-09-21T02:23:20.116Z,78.50
2017-09-21T02:28:21.525Z,78.40
2017-09-21T02:30:49.132Z,78.40
2017-09-21T02:33:17.209Z,78.10
2017-09-21T02:35:45.578Z,79.00
2017-09-21T02:38:13.173Z,78.20
2017-09-21T02:40:41.027Z,78.30
2017-09-21T02:43:09.367Z,78.20
2017-09-21T02:45:37.335Z,78.10
2017-09-21T02:48:04.886Z,78.20
2017-09-21T02:50:32.590Z,78.00
2017-09-21T02:53:00.176Z,78.00
2017-09-21T02:55:27.740Z,77.90
2017-09-21T02:57:55.651Z,77.90
2017-09-21T03:00:23.212Z,77.90
2017-09-21T03:02:50.774Z,77.90
2017-09-21T03:05:18.520Z,77.90
2017-09-21T03:07:46.126Z,77.90
2017-09-21T03:10:14.775Z,77.40
2017-09-21T03:12:42.350Z,77.40
2017-09-21T03:15:09.924Z,77.60
2017-09-21T03:17:38.276Z,77.70
2017-09-21T03:20:05.835Z,77.70
2017-09-21T03:22:33.907Z,77.70
2017-09-21T03:25:01.460Z,77.80
2017-09-21T03:27:29.022Z,77.70
2017-09-21T03:29:56.619Z,77.80
2017-09-21T03:32:24.179Z,77.70
2017-09-21T03:34:52.828Z,77.80
2017-09-21T03:37:20.411Z,77.80
2017-09-21T03:39:47.977Z,77.80
2017-09-21T03:42:16.529Z,77.80
2017-09-21T03:44:44.094Z,77.60
2017-09-21T03:47:12.151Z,77.90
2017-09-21T03:49:39.709Z,77.80
2017-09-21T03:52:07.266Z,78.50
2017-09-21T03:54:34.862Z,77.90
2017-09-21T03:57:02.445Z,78.00
2017-09-21T03:59:30.344Z,78.00
2017-09-21T04:01:57.911Z,78.00
2017-09-21T04:04:25.548Z,78.00
2017-09-21T04:06:53.165Z,78.00
2017-09-21T04:09:20.741Z,78.10
2017-09-21T04:11:49.407Z,78.10
2017-09-21T04:14:16.999Z,78.00
2017-09-21T04:16:44.559Z,78.10
2017-09-21T04:19:12.976Z,78.10
2017-09-21T04:21:40.572Z,78.00
2017-09-21T04:24:09.239Z,78.00
2017-09-21T04:26:36.815Z,78.00
2017-09-21T04:29:05.163Z,78.20
2017-09-21T04:31:33.596Z,78.10
2017-09-21T04:34:01.192Z,78.30
2017-09-21T04:36:29.294Z,78.20
2017-09-21T04:38:56.862Z,78.30
2017-09-21T04:41:24.419Z,78.40
2017-09-21T04:43:52.010Z,78.40
2017-09-21T04:46:19.626Z,78.50
2017-09-21T04:48:47.502Z,78.60
2017-09-21T04:51:16.570Z,78.80
2017-09-21T04:53:44.147Z,78.80
2017-09-21T04:56:11.751Z,79.00
2017-09-21T04:58:39.302Z,79.10
2017-09-21T05:01:08.027Z,79.20
2017-09-21T05:03:35.577Z,79.20
2017-09-21T05:06:03.152Z,79.10
2017-09-21T05:08:30.752Z,79.30
2017-09-21T05:10:59.090Z,79.90
2017-09-21T05:13:27.086Z,79.30
2017-09-21T05:15:54.650Z,79.30
2017-09-21T05:18:22.228Z,79.10
2017-09-21T05:20:50.594Z,79.30
2017-09-21T05:23:18.150Z,79.20
2017-09-21T05:25:46.211Z,79.20
2017-09-21T05:28:13.810Z,79.10
2017-09-21T05:30:42.006Z,79.10
2017-09-21T05:33:09.623Z,79.30
2017-09-21T05:35:37.947Z,79.30
2017-09-21T05:38:05.943Z,79.20
2017-09-21T05:40:33.508Z,79.20
2017-09-21T05:43:01.067Z,79.10
2017-09-21T05:45:28.787Z,79.00
2017-09-21T05:47:56.322Z,79.00
2017-09-21T05:50:24.249Z,78.90
2017-09-21T05:52:51.804Z,78.80
2017-09-21T05:55:19.359Z,78.80
2017-09-21T05:57:47.051Z,78.60
2017-09-21T06:00:14.615Z,78.70
2017-09-21T06:02:42.590Z,78.70
2017-09-21T06:05:10.925Z,78.80
2017-09-21T06:07:38.495Z,78.60
2017-09-21T06:10:06.113Z,78.60
2017-09-21T06:12:33.671Z,78.70
2017-09-21T06:15:01.564Z,78.50
2017-09-21T06:17:29.135Z,78.50
2017-09-21T06:19:56.700Z,78.40
2017-09-21T06:22:24.296Z,78.40
2017-09-21T06:24:52.623Z,78.00
2017-09-21T06:27:20.621Z,78.00
2017-09-21T06:29:48.182Z,78.10
2017-09-21T06:32:15.741Z,78.00
2017-09-21T06:34:43.346Z,77.90
2017-09-21T06:37:10.910Z,77.90
2017-09-21T06:39:38.884Z,78.00
2017-09-21T06:42:06.440Z,78.00
2017-09-21T06:44:34.084Z,77.90
2017-09-21T06:47:01.703Z,77.90
2017-09-21T06:49:29.275Z,77.80
2017-09-21T06:51:58.665Z,77.30
2017-09-21T06:54:26.242Z,77.20
2017-09-21T06:56:53.835Z,77.20
2017-09-21T06:59:21.646Z,77.20
2017-09-21T07:01:49.207Z,76.90
2017-09-21T07:04:17.182Z,77.00
2017-09-21T07:06:45.540Z,77.10
2017-09-21T07:09:13.118Z,77.00
2017-09-21T07:11:40.719Z,77.00
2017-09-21T07:14:08.278Z,77.00
2017-09-21T07:16:37.163Z,77.10
2017-09-21T07:19:05.508Z,77.20
2017-09-21T07:21:33.059Z,77.10
2017-09-21T07:24:00.646Z,77.20
2017-09-21T07:26:28.223Z,77.20
2017-09-21T07:28:57.007Z,76.70
2017-09-21T07:31:24.566Z,76.70
2017-09-21T07:33:52.897Z,76.10
2017-09-21T07:36:20.495Z,76.00
2017-09-21T07:38:49.076Z,76.40
2017-09-21T07:41:16.954Z,76.30
2017-09-21T07:43:44.555Z,76.20
2017-09-21T07:46:12.114Z,76.10
2017-09-21T07:48:39.708Z,76.00
2017-09-21T07:51:07.272Z,75.80
2017-09-21T07:53:35.336Z,75.80
2017-09-21T07:56:02.894Z,75.70
2017-09-21T07:58:30.456Z,75.50
2017-09-21T08:00:58.058Z,75.50
2017-09-21T08:03:25.617Z,75.40
2017-09-21T08:05:53.657Z,75.30
2017-09-21T08:08:21.207Z,75.20
2017-09-21T08:10:48.766Z,74.80
2017-09-21T08:13:16.362Z,74.70
2017-09-21T08:15:43.947Z,74.40
2017-09-21T08:18:11.955Z,73.80
2017-09-21T08:20:39.531Z,73.80
2017-09-21T08:23:07.115Z,73.80
2017-09-21T08:25:34.803Z,73.80
2017-09-21T08:30:36.602Z,73.80
2017-09-21T08:33:04.316Z,74.00
2017-09-21T08:35:31.906Z,73.90
2017-09-21T08:37:59.503Z,74.00
2017-09-21T08:40:27.839Z,73.20
2017-09-21T08:42:55.707Z,73.20
2017-09-21T08:45:23.277Z,73.50
2017-09-21T08:47:50.842Z,73.60
2017-09-21T08:50:18.464Z,73.10
2017-09-21T08:52:46.051Z,73.30
2017-09-21T08:55:14.067Z,73.50
2017-09-21T08:57:42.489Z,73.20
2017-09-21T09:00:10.069Z,73.20
2017-09-21T09:02:37.667Z,72.80
2017-09-21T09:05:06.007Z,73.10
2017-09-21T09:07:33.990Z,73.10
2017-09-21T09:10:01.547Z,73.10
2017-09-21T09:12:29.113Z,73.00
2017-09-21T09:14:56.705Z,72.50
2017-09-21T09:17:24.291Z,72.60
2017-09-21T09:19:52.299Z,72.50
2017-09-21T09:22:19.892Z,72.60
2017-09-21T09:24:47.477Z,72.30
2017-09-21T09:27:15.070Z,72.30
2017-09-21T09:29:42.627Z,72.10
2017-09-21T09:32:10.606Z,72.20
2017-09-21T09:34:38.154Z,71.90
2017-09-21T09:37:05.716Z,71.40
2017-09-21T09:39:33.338Z,71.40
2017-09-21T09:42:00.889Z,71.40
2017-09-21T09:44:28.942Z,71.30
2017-09-21T09:46:57.291Z,70.90
2017-09-21T09:49:24.857Z,70.90
2017-09-21T09:51:53.216Z,70.50
2017-09-21T09:54:20.787Z,70.50
2017-09-21T09:56:48.658Z,70.50
2017-09-21T09:59:16.203Z,70.50
2017-09-21T10:01:43.785Z,70.50
2017-09-21T10:04:11.404Z,70.60
2017-09-21T10:06:39.076Z,70.60
2017-09-21T10:09:07.005Z,70.40
2017-09-21T10:11:34.656Z,70.60
2017-09-21T10:14:02.998Z,70.20
2017-09-21T10:16:30.747Z,70.20
2017-09-21T10:18:58.351Z,70.20
2017-09-21T10:21:26.296Z,70.10
2017-09-21T10:23:53.855Z,70.00
2017-09-21T10:26:21.436Z,70.10
2017-09-21T10:28:49.041Z,69.70
2017-09-21T10:31:16.779Z,69.50
2017-09-21T10:33:45.430Z,69.60
2017-09-21T10:36:13.008Z,69.50
2017-09-21T10:38:40.799Z,69.40
2017-09-21T10:41:08.454Z,69.10
2017-09-21T10:43:36.133Z,68.90
2017-09-21T10:46:04.000Z,68.80
2017-09-21T10:48:31.783Z,68.40
2017-09-21T10:50:59.522Z,68.20
2017-09-21T10:53:27.181Z,68.40
2017-09-21T10:55:55.625Z,68.60
2017-09-21T10:58:23.689Z,68.50
2017-09-21T11:00:51.470Z,68.40
2017-09-21T11:03:19.022Z,68.50
2017-09-21T11:05:46.678Z,68.40
2017-09-21T11:08:14.259Z,68.20
2017-09-21T11:10:43.014Z,68.00
2017-09-21T11:13:10.598Z,67.50
2017-09-21T11:15:38.170Z,67.10
2017-09-21T11:18:06.694Z,66.90
2017-09-21T11:20:34.358Z,66.80
2017-09-21T11:23:02.361Z,67.30
2017-09-21T11:25:30.055Z,66.90
2017-09-21T11:27:58.408Z,66.80
2017-09-21T11:30:26.011Z,66.80
2017-09-21T11:32:53.563Z,66.80
2017-09-21T11:35:21.484Z,66.90
2017-09-21T11:37:49.035Z,66.90
2017-09-21T11:40:16.604Z,66.90
2017-09-21T11:42:44.195Z,66.90
2017-09-21T11:45:11.762Z,66.90
2017-09-21T11:47:40.440Z,66.90
2017-09-21T11:50:09.032Z,66.80
2017-09-21T11:52:36.635Z,66.80
2017-09-21T11:55:04.286Z,66.70
2017-09-21T11:57:31.975Z,66.70
2017-09-21T11:59:59.877Z,66.70
2017-09-21T12:02:27.446Z,66.80
2017-09-21T12:04:55.781Z,66.80
2017-09-21T12:07:24.137Z,66.70
2017-09-21T12:09:52.527Z,66.60
2017-09-21T12:12:20.510Z,66.60
2017-09-21T12:14:48.067Z,66.60
2017-09-21T12:17:15.627Z,66.60
2017-09-21T12:19:43.588Z,66.60
2017-09-21T12:22:11.159Z,66.80
2017-09-21T12:24:41.831Z,66.90
2017-09-21T12:27:09.388Z,66.90
2017-09-21T12:29:37.753Z,65.90
2017-09-21T12:32:05.369Z,65.90
2017-09-21T12:34:32.942Z,66.20
2017-09-21T12:37:00.934Z,65.80
2017-09-21T12:39:28.545Z,65.50
2017-09-21T12:41:56.115Z,65.70
2017-09-21T12:44:23.886Z,65.30
2017-09-21T12:46:51.600Z,65.30
2017-09-21T12:49:19.640Z,64.90
2017-09-21T12:51:47.212Z,64.70
2017-09-21T12:54:14.895Z,64.80
2017-09-21T12:56:43.322Z,65.00
2017-09-21T12:59:10.877Z,65.00
2017-09-21T13:01:39.693Z,64.30
2017-09-21T13:04:08.045Z,63.60
2017-09-21T13:06:35.610Z,63.60
2017-09-21T13:09:03.296Z,64.20
2017-09-21T13:11:31.718Z,62.80
2017-09-21T13:13:59.723Z,62.80
2017-09-21T13:16:27.300Z,62.60
2017-09-21T13:18:54.920Z,63.50
2017-09-21T13:21:24.234Z,63.40
2017-09-21T13:23:51.865Z,63.10
2017-09-21T13:26:19.485Z,62.80
2017-09-21T13:28:47.966Z,63.00
2017-09-21T13:31:16.640Z,63.00
2017-09-21T13:33:44.207Z,63.00
2017-09-21T13:36:11.807Z,63.10
2017-09-21T13:38:39.422Z,63.10
2017-09-21T13:41:07.090Z,62.70
2017-09-21T13:43:35.017Z,62.80
2017-09-21T13:46:02.587Z,62.90
2017-09-21T13:48:30.272Z,62.50
2017-09-21T13:50:58.396Z,62.70
2017-09-21T13:53:25.966Z,62.50
2017-09-21T13:55:54.085Z,63.10
2017-09-21T13:58:22.449Z,62.30
2017-09-21T14:00:50.047Z,62.30
2017-09-21T14:03:18.480Z,62.60
2017-09-21T14:05:46.075Z,62.50
2017-09-21T14:08:14.055Z,62.60
2017-09-21T14:10:43.208Z,62.20
2017-09-21T14:13:10.775Z,62.10
2017-09-21T14:15:38.378Z,62.90
2017-09-21T14:18:05.988Z,62.20
2017-09-21T14:20:33.966Z,62.70
2017-09-21T14:23:01.543Z,62.90
2017-09-21T14:25:29.162Z,62.60
2017-09-21T14:27:56.812Z,62.80
2017-09-21T14:30:24.352Z,62.70
2017-09-21T14:32:52.327Z,62.60
2017-09-21T14:35:19.883Z,62.60
2017-09-21T14:37:47.711Z,62.60
2017-09-21T14:40:15.370Z,63.10
2017-09-21T14:42:42.944Z,63.10
2017-09-21T14:45:11.619Z,63.30
2017-09-21T14:47:39.243Z,63.60
2017-09-21T14:50:07.053Z,63.70
2017-09-21T14:52:34.659Z,64.00
2017-09-21T14:55:03.017Z,64.50
2017-09-21T14:57:31.157Z,64.50
2017-09-21T14:59:59.490Z,64.40
2017-09-21T15:02:27.171Z,64.40
2017-09-21T15:04:54.814Z,64.30
2017-09-21T15:07:22.457Z,64.30
2017-09-21T15:09:50.505Z,64.10
2017-09-21T15:12:18.881Z,64.40
2017-09-21T15:14:46.469Z,64.40
2017-09-21T15:17:14.850Z,65.00
2017-09-21T15:19:42.439Z,64.90
2017-09-21T15:22:10.440Z,64.80
2017-09-21T15:24:38.095Z,64.70
2017-09-21T15:27:05.679Z,64.90
2017-09-21T15:29:33.295Z,65.00
2017-09-21T15:32:00.857Z,65.10
2017-09-21T15:34:28.951Z,65.20
2017-09-21T15:36:56.521Z,65.50
2017-09-21T15:39:25.736Z,65.50
2017-09-21T15:41:54.121Z,66.30
2017-09-21T15:44:21.672Z,66.20
2017-09-21T15:46:50.335Z,66.70
2017-09-21T15:49:17.964Z,66.10
2017-09-21T15:51:45.561Z,66.10
2017-09-21T15:54:13.813Z,66.10
2017-09-21T15:56:41.386Z,66.10
2017-09-21T15:59:09.256Z,66.80
2017-09-21T16:01:36.951Z,66.60
2017-09-21T16:04:05.362Z,66.70
2017-09-21T16:06:33.002Z,66.70
2017-09-21T16:09:00.563Z,66.90
2017-09-21T16:11:28.500Z,67.10
2017-09-21T16:13:56.101Z,67.20
2017-09-21T16:16:23.917Z,67.20
2017-09-21T16:18:51.834Z,67.60
2017-09-21T16:21:19.510Z,67.60
2017-09-21T16:23:47.524Z,67.80
2017-09-21T16:26:15.118Z,68.00
2017-09-21T16:28:42.721Z,68.00
2017-09-21T16:31:10.331Z,68.20
2017-09-21T16:33:37.885Z,68.20
2017-09-21T16:36:06.030Z,68.40
2017-09-21T16:38:33.633Z,68.50
2017-09-21T16:41:01.215Z,68.50
2017-09-21T16:43:28.844Z,68.60
2017-09-21T16:45:57.221Z,68.70
2017-09-21T16:48:25.146Z,68.70
2017-09-21T16:50:52.718Z,68.70
2017-09-21T16:53:21.879Z,68.90
2017-09-21T16:55:49.504Z,68.90
2017-09-21T16:58:17.079Z,69.00
2017-09-21T17:00:45.325Z,69.10
2017-09-21T17:03:13.707Z,69.30
2017-09-21T17:05:41.284Z,69.30
2017-09-21T17:08:09.650Z,69.50
2017-09-21T17:10:37.223Z,69.50
2017-09-21T17:13:06.086Z,69.70
2017-09-21T17:15:33.643Z,69.70
2017-09-21T17:18:01.229Z,69.70
2017-09-21T17:20:29.584Z,69.70
2017-09-21T17:22:57.170Z,69.60
2017-09-21T17:25:25.206Z,69.60
2017-09-21T17:27:52.806Z,69.60
2017-09-21T17:30:20.529Z,69.60
2017-09-21T17:32:48.219Z,69.80
2017-09-21T17:35:16.562Z,69.80
2017-09-21T17:37:44.696Z,69.80
2017-09-21T17:40:12.294Z,69.70
2017-09-21T17:42:39.849Z,69.80
2017-09-21T17:45:07.481Z,70.00
2017-09-21T17:47:35.935Z,70.10
2017-09-21T17:50:03.861Z,70.80
2017-09-21T17:52:31.437Z,70.50
2017-09-21T17:54:59.025Z,70.50
2017-09-21T17:57:26.643Z,70.70
2017-09-21T17:59:54.209Z,70.90
2017-09-21T18:02:22.166Z,71.10
2017-09-21T18:04:49.756Z,71.10
2017-09-21T18:07:17.387Z,71.10
2017-09-21T18:09:44.986Z,71.30
2017-09-21T18:12:13.351Z,71.30
2017-09-21T18:14:41.310Z,71.30
2017-09-21T18:17:08.882Z,71.40
2017-09-21T18:19:36.441Z,71.50
2017-09-21T18:22:04.082Z,71.70
2017-09-21T18:24:31.668Z,71.60
2017-09-21T18:27:00.700Z,71.90
2017-09-21T18:29:28.270Z,72.00
2017-09-21T18:31:55.875Z,72.00
2017-09-21T18:34:25.110Z,72.30
2017-09-21T18:36:52.916Z,72.30
2017-09-21T18:39:20.943Z,72.30
2017-09-21T18:41:48.559Z,72.30
2017-09-21T18:44:16.139Z,72.10
2017-09-21T18:46:43.886Z,72.30
2017-09-21T18:49:12.141Z,72.40
2017-09-21T18:51:40.235Z,72.70
2017-09-21T18:54:07.829Z,72.80
2017-09-21T18:56:35.412Z,72.90
2017-09-21T18:59:03.081Z,72.90
2017-09-21T19:01:30.668Z,72.90
2017-09-21T19:03:58.768Z,72.90
2017-09-21T19:06:27.150Z,73.10
2017-09-21T19:08:54.736Z,73.10
2017-09-21T19:11:22.379Z,73.00
2017-09-21T19:13:50.717Z,73.00
2017-09-21T19:16:18.711Z,73.00
2017-09-21T19:18:46.320Z,73.20
2017-09-21T19:21:14.531Z,73.40
2017-09-21T19:23:42.199Z,73.40
2017-09-21T19:26:09.783Z,73.40
2017-09-21T19:28:38.440Z,73.30
2017-09-21T19:31:06.036Z,73.30
2017-09-21T19:33:33.631Z,73.30
2017-09-21T19:36:01.460Z,73.30
2017-09-21T19:38:29.051Z,73.30
2017-09-21T19:40:57.430Z,73.30
2017-09-21T19:43:25.079Z,73.30
2017-09-21T19:45:52.703Z,73.30
2017-09-21T19:48:21.198Z,73.50
2017-09-21T19:50:49.090Z,73.50
2017-09-21T19:53:16.715Z,73.80
2017-09-21T19:55:45.032Z,74.00
2017-09-21T19:58:12.660Z,73.90
2017-09-21T20:00:41.038Z,73.90
2017-09-21T20:03:08.749Z,73.80
2017-09-21T20:05:36.334Z,74.10
2017-09-21T20:08:04.240Z,73.90
2017-09-21T20:10:31.835Z,74.20
2017-09-21T20:12:59.445Z,74.20
2017-09-21T20:15:27.872Z,74.20
2017-09-21T20:17:56.134Z,74.10
2017-09-21T20:20:24.122Z,74.20
2017-09-21T20:22:51.687Z,74.30
2017-09-21T20:25:19.266Z,74.30
2017-09-21T20:27:46.894Z,74.40
2017-09-21T20:30:14.474Z,74.50
2017-09-21T20:32:42.379Z,74.50
2017-09-21T20:35:10.704Z,74.50
2017-09-21T20:37:38.293Z,74.50
2017-09-21T20:40:05.939Z,74.70
2017-09-21T20:42:33.524Z,74.60
2017-09-21T20:45:02.659Z,74.90
2017-09-21T20:47:30.251Z,74.80
2017-09-21T20:49:57.872Z,74.60
2017-09-21T20:52:25.472Z,74.70
2017-09-21T20:54:53.059Z,74.60
2017-09-21T20:57:21.015Z,74.80
2017-09-21T20:59:48.590Z,74.80
2017-09-21T21:02:16.175Z,75.00
2017-09-21T21:04:44.535Z,75.20
2017-09-21T21:07:12.132Z,75.20
2017-09-21T21:09:39.749Z,75.00
2017-09-21T21:12:07.356Z,74.90
2017-09-21T21:14:34.974Z,75.00
2017-09-21T21:17:02.746Z,75.10
2017-09-21T21:22:05.704Z,75.10
2017-09-21T21:24:33.325Z,75.00
2017-09-21T21:27:00.917Z,75.00
2017-09-21T21:29:28.520Z,75.20
2017-09-21T21:31:56.125Z,75.20
2017-09-21T21:34:23.765Z,75.20
2017-09-21T21:36:52.160Z,75.40
2017-09-21T21:39:19.775Z,75.40
2017-09-21T21:41:47.331Z,75.60
2017-09-21T21:44:15.270Z,75.50
2017-09-21T21:46:42.900Z,75.70
2017-09-21T21:49:10.681Z,75.60
2017-09-21T21:51:38.581Z,75.80
2017-09-21T21:54:06.166Z,76.00
2017-09-21T21:56:33.736Z,76.00
2017-09-21T21:59:02.132Z,76.10
2017-09-21T22:01:29.739Z,76.10
2017-09-21T22:03:57.918Z,76.30
2017-09-21T22:06:25.459Z,76.40
2017-09-21T22:08:53.019Z,76.30
2017-09-21T22:11:20.610Z,76.40
2017-09-21T22:13:48.166Z,76.30
2017-09-21T22:16:16.224Z,76.30
2017-09-21T22:18:43.788Z,76.50
2017-09-21T22:21:11.563Z,76.20
2017-09-21T22:23:39.569Z,75.80
2017-09-21T22:26:07.127Z,76.30
2017-09-21T22:28:35.763Z,76.50
2017-09-21T22:31:03.324Z,77.00
2017-09-21T22:33:30.913Z,76.60
2017-09-21T22:35:59.301Z,76.60
2017-09-21T22:38:26.854Z,76.60
2017-09-21T22:40:55.475Z,76.70
2017-09-21T22:43:23.030Z,76.60
2017-09-21T22:45:50.590Z,76.60
2017-09-21T22:48:18.202Z,76.90
2017-09-21T22:50:45.780Z,77.10
2017-09-21T22:53:14.437Z,77.10
2017-09-21T22:55:42.008Z,77.10
2017-09-21T22:58:09.554Z,77.10
2017-09-21T23:00:50.615Z,77.00
2017-09-21T23:03:18.923Z,77.10
2017-09-21T23:05:46.906Z,77.10
2017-09-21T23:08:14.523Z,76.90
2017-09-21T23:10:42.075Z,76.90
2017-09-21T23:13:10.488Z,77.20
2017-09-21T23:15:38.058Z,77.10
2017-09-21T23:18:06.004Z,77.10
2017-09-21T23:20:33.560Z,76.80
2017-09-21T23:23:01.128Z,76.90
2017-09-21T23:25:28.724Z,77.10
2017-09-21T23:27:56.267Z,77.00
2017-09-21T23:30:24.144Z,76.90
2017-09-21T23:32:51.703Z,76.90
2017-09-21T23:35:19.251Z,76.90
2017-09-21T23:37:46.846Z,76.70
2017-09-21T23:40:14.409Z,76.80
2017-09-21T23:42:42.254Z,76.80
2017-09-21T23:45:09.816Z,77.00
2017-09-21T23:47:37.387Z,76.60
2017-09-21T23:50:04.983Z,76.40
2017-09-21T23:52:32.535Z,76.30
2017-09-21T23:55:01.180Z,76.80
2017-09-21T23:57:28.740Z,76.80
2017-09-21T23:59:56.290Z,76.70
